Time;durP1;ratioP1;P1;durP2;ratioP2;P2;SDS_P1;SDS_P2;PMS_P1;PMS_P2;Temp;Humidity;BMP_temperature;BMP_pressure;BME280_temperature;BME280_humidity;BME280_pressure;Samples;Min_cycle;Max_cycle;Signal;HPM_P1;HPM_P2
2021/10/22 00:01:12;;;;;;;7.95;3.25;;;8.50;99.90;;;8.23;100.00;101741.88;4106594;28;20027;-71
2021/10/22 00:03:13;;;;;;;6.45;3.67;;;8.60;99.90;;;8.20;100.00;101739.47;4118275;28;20031;-71
2021/10/22 00:05:14;;;;;;;11.75;5.10;;;8.50;99.90;;;8.16;100.00;101735.38;4102080;28;20486;-71
2021/10/22 00:07:16;;;;;;;8.65;5.15;;;8.50;99.90;;;8.02;100.00;101735.59;4150447;28;20022;-72
2021/10/22 00:09:17;;;;;;;9.50;6.18;;;8.40;99.90;;;7.99;100.00;101738.44;4119391;28;20081;-71
2021/10/22 00:11:18;;;;;;;9.30;5.72;;;8.40;99.90;;;7.99;100.00;101741.09;4117797;28;20505;-72
2021/10/22 00:13:19;;;;;;;10.95;4.72;;;8.40;99.90;;;8.02;100.00;101740.84;4118057;28;20464;-72
2021/10/22 00:15:21;;;;;;;6.18;4.85;;;8.40;99.90;;;7.98;100.00;101734.16;4118044;28;20081;-71
2021/10/22 00:17:23;;;;;;;8.50;4.53;;;8.30;99.90;;;8.00;100.00;101742.75;4118264;28;20031;-71
2021/10/22 00:19:24;;;;;;;5.53;3.03;;;8.30;99.90;;;7.93;100.00;101747.63;4117794;28;20053;-71
2021/10/22 00:21:24;;;;;;;5.03;2.50;;;8.30;99.90;;;7.87;100.00;101753.34;4102004;29;20031;-72
2021/10/22 00:23:25;;;;;;;4.20;2.00;;;8.30;99.90;;;7.70;100.00;101736.22;4133922;28;20022;-71
2021/10/22 00:25:27;;;;;;;4.20;1.90;;;8.20;99.90;;;7.77;100.00;101747.94;4117731;28;20037;-72
2021/10/22 00:27:29;;;;;;;4.85;1.90;;;8.20;99.90;;;7.77;100.00;101753.19;4101940;28;20028;-72
2021/10/22 00:29:30;;;;;;;4.03;2.15;;;8.20;99.90;;;7.79;100.00;101742.59;4143544;28;20060;-72
2021/10/22 00:31:31;;;;;;;7.18;1.80;;;8.20;99.90;;;7.74;100.00;101736.81;4101062;29;20024;-71
2021/10/22 00:33:32;;;;;;;8.15;2.10;;;8.20;99.90;;;7.73;100.00;101745.66;4117903;28;20042;-72
2021/10/22 00:35:34;;;;;;;5.63;1.83;;;8.10;99.90;;;7.72;100.00;101752.69;4102230;29;20031;-71
2021/10/22 00:37:35;;;;;;;3.55;1.90;;;8.20;99.90;;;7.70;100.00;101744.09;4126918;28;20045;-71
2021/10/22 00:39:36;;;;;;;4.82;2.00;;;8.10;99.90;;;7.73;100.00;101745.66;4117758;28;20095;-72
2021/10/22 00:41:38;;;;;;;6.40;1.60;;;8.10;99.90;;;7.71;100.00;101750.16;4118608;28;20094;-72
2021/10/22 00:43:39;;;;;;;4.85;2.00;;;8.10;99.90;;;7.64;100.00;101746.34;4117960;28;20038;-72
2021/10/22 00:45:40;;;;;;;4.57;2.00;;;8.10;99.90;;;7.56;100.00;101754.75;4117791;28;20030;-71
2021/10/22 00:47:43;;;;;;;3.28;1.73;;;8.10;99.90;;;7.59;100.00;101765.03;4117757;28;20399;-72
2021/10/22 00:49:47;;;;;;;6.63;1.80;;;8.00;99.90;;;7.61;100.00;101757.91;4117511;28;20162;-72
2021/10/22 00:51:48;;;;;;;4.43;1.88;;;8.00;99.90;;;7.71;100.00;101758.88;4117724;28;20034;-71
2021/10/22 00:53:50;;;;;;;7.22;2.63;;;8.10;99.90;;;7.72;100.00;101759.72;4101700;28;20140;-72
2021/10/22 00:55:51;;;;;;;3.67;1.73;;;8.10;99.90;;;7.68;100.00;101772.25;4117465;28;20030;-71
2021/10/22 00:57:52;;;;;;;6.20;2.50;;;8.10;99.90;;;7.67;100.00;101765.34;4117676;28;20055;-71
2021/10/22 00:59:53;;;;;;;4.65;2.63;;;8.00;99.90;;;7.70;100.00;101762.47;4117630;28;20030;-72
2021/10/22 01:01:55;;;;;;;6.40;1.85;;;8.00;99.90;;;7.61;100.00;101757.91;4117730;28;20065;-72
2021/10/22 01:03:56;;;;;;;3.80;2.10;;;8.10;99.90;;;7.84;100.00;101773.75;4117552;28;20022;-72
2021/10/22 01:06:00;;;;;;;9.40;2.50;;;8.10;99.90;;;7.71;100.00;101761.50;4118700;28;20038;-72
2021/10/22 01:08:03;;;;;;;10.02;3.22;;;8.10;99.90;;;7.78;100.00;101760.13;4117690;28;20034;-71
2021/10/22 01:10:06;;;;;;;4.15;1.70;;;8.10;99.90;;;7.70;100.00;101762.47;4117337;28;20484;-71
2021/10/22 01:12:07;;;;;;;5.00;2.22;;;8.10;99.90;;;7.77;100.00;101778.59;4117382;28;20051;-72
2021/10/22 01:14:08;;;;;;;3.92;1.65;;;8.10;99.90;;;7.77;100.00;101779.44;4118696;28;20030;-71
2021/10/22 01:16:09;;;;;;;5.72;2.50;;;8.10;99.90;;;7.72;100.00;101775.50;4101501;28;20027;-72
2021/10/22 01:18:10;;;;;;;6.75;2.92;;;8.10;99.90;;;7.82;100.00;101760.75;4111345;28;20063;-72
2021/10/22 01:20:18;;;;;;;7.15;2.00;;;8.10;99.90;;;7.80;100.00;101763.47;4117098;28;20027;-72
2021/10/22 01:22:20;;;;;;;4.47;2.25;;;8.10;99.90;;;7.71;100.00;101768.53;4102027;28;20547;-71
2021/10/22 01:24:21;;;;;;;6.10;2.22;;;8.10;99.90;;;7.77;100.00;101768.94;4110221;28;20046;-71
2021/10/22 01:26:23;;;;;;;4.22;2.42;;;8.10;99.90;;;7.77;100.00;101761.06;4117069;28;20049;-72
2021/10/22 01:28:24;;;;;;;5.63;2.60;;;8.10;99.90;;;7.76;100.00;101766.44;4118292;28;20062;-71
2021/10/22 01:30:27;;;;;;;5.90;2.25;;;8.10;99.90;;;7.84;100.00;101764.09;4117300;28;20052;-72
2021/10/22 01:32:28;;;;;;;4.68;2.00;;;8.10;99.90;;;7.73;100.00;101764.88;4101119;28;20491;-72
2021/10/22 01:34:29;;;;;;;6.93;2.67;;;8.10;99.90;;;7.74;100.00;101771.78;4113283;28;20483;-71
2021/10/22 01:36:33;;;;;;;7.43;2.88;;;8.10;99.90;;;7.87;100.00;101778.78;4117034;28;20026;-71
2021/10/22 01:38:34;;;;;;;3.63;2.30;;;8.10;99.90;;;7.85;100.00;101778.06;4101072;28;20034;-71
2021/10/22 01:40:35;;;;;;;7.25;1.92;;;8.10;99.90;;;7.77;100.00;101783.84;4108701;28;20038;-71
2021/10/22 01:42:37;;;;;;;4.30;1.80;;;8.10;99.90;;;7.80;100.00;101779.22;4149386;28;20026;-72
2021/10/22 01:44:38;;;;;;;8.43;2.63;;;8.10;99.90;;;7.73;100.00;101787.69;4147999;28;20037;-71
2021/10/22 01:46:39;;;;;;;3.92;2.22;;;8.10;99.90;;;7.70;100.00;101791.38;4117098;28;20495;-71
2021/10/22 01:48:40;;;;;;;6.82;1.80;;;8.00;99.90;;;7.63;100.00;101792.75;4100865;28;20095;-71
2021/10/22 01:50:42;;;;;;;10.20;2.30;;;8.10;99.90;;;7.58;100.00;101794.88;4116946;28;20109;-71
2021/10/22 01:52:45;;;;;;;3.97;1.80;;;8.00;99.90;;;7.42;100.00;101801.34;4116754;28;20092;-71
2021/10/22 01:54:47;;;;;;;5.18;2.00;;;8.00;99.90;;;7.50;100.00;101812.13;4118077;28;20019;-71
2021/10/22 01:56:48;;;;;;;4.95;2.58;;;7.90;99.90;;;7.41;100.00;101803.13;4116737;28;20490;-71
2021/10/22 01:58:49;;;;;;;6.88;2.42;;;7.90;99.90;;;7.48;100.00;101806.16;4116861;28;20088;-71
2021/10/22 02:00:50;;;;;;;7.13;2.17;;;7.90;99.90;;;7.54;100.00;101809.19;4116719;28;20526;-71
2021/10/22 02:02:51;;;;;;;7.93;2.30;;;8.00;99.90;;;7.44;100.00;101810.78;4116908;28;20027;-71
2021/10/22 02:04:52;;;;;;;8.20;2.20;;;7.80;99.90;;;7.49;100.00;101816.56;4117961;28;20041;-71
2021/10/22 02:06:53;;;;;;;6.47;2.55;;;7.80;99.90;;;7.40;100.00;101816.38;4117980;28;20045;-71
2021/10/22 02:08:54;;;;;;;11.70;3.47;;;7.80;99.90;;;7.37;100.00;101820.06;4116687;28;20039;-71
2021/10/22 02:10:55;;;;;;;7.78;3.20;;;7.80;99.90;;;7.55;100.00;101805.63;4116545;28;20054;-71
2021/10/22 02:12:57;;;;;;;7.22;2.83;;;7.80;99.90;;;7.46;100.00;101814.16;4100687;28;20043;-71
2021/10/22 02:14:59;;;;;;;12.48;2.75;;;7.80;99.90;;;7.50;100.00;101807.72;4117885;28;20106;-71
2021/10/22 02:17:00;;;;;;;5.75;2.72;;;7.80;99.90;;;7.50;100.00;101805.09;4100568;29;20031;-71
2021/10/22 02:19:01;;;;;;;6.88;2.20;;;7.90;99.90;;;7.57;100.00;101806.31;4105398;28;20498;-71
2021/10/22 02:21:02;;;;;;;5.25;2.58;;;7.90;99.90;;;7.65;100.00;101801.34;4116797;28;20027;-71
2021/10/22 02:23:03;;;;;;;6.35;1.95;;;7.90;99.90;;;7.61;100.00;101799.91;4100664;29;20035;-71
2021/10/22 02:25:05;;;;;;;5.85;2.70;;;7.90;99.90;;;7.37;100.00;101791.19;4132424;28;20101;-71
2021/10/22 02:27:06;;;;;;;5.05;2.28;;;7.80;99.90;;;7.31;100.00;101796.88;4105200;28;20563;-71
2021/10/22 02:29:07;;;;;;;6.75;2.80;;;7.80;99.90;;;7.48;100.00;101808.78;4116565;28;20022;-71
2021/10/22 02:31:08;;;;;;;6.53;2.75;;;7.80;99.90;;;7.53;100.00;101810.13;4116551;28;20521;-71
2021/10/22 02:33:11;;;;;;;4.45;2.28;;;7.80;99.90;;;7.50;100.00;101806.88;4116331;28;20035;-71
2021/10/22 02:35:12;;;;;;;6.50;2.80;;;7.80;99.90;;;7.47;100.00;101810.56;4116628;28;20030;-71
2021/10/22 02:37:13;;;;;;;8.65;2.60;;;7.90;99.90;;;7.39;100.00;101809.44;4116426;28;20030;-71
2021/10/22 02:39:14;;;;;;;7.05;2.85;;;7.80;99.90;;;7.43;100.00;101813.53;4116646;28;20077;-71
2021/10/22 02:41:16;;;;;;;7.97;2.40;;;7.70;99.90;;;7.53;100.00;101815.38;4116175;28;20030;-71
2021/10/22 02:43:17;;;;;;;8.13;2.08;;;7.80;99.90;;;7.54;100.00;101816.22;4116253;28;20061;-71
2021/10/22 02:45:18;;;;;;;5.40;2.00;;;7.80;99.90;;;7.46;100.00;101829.91;4116421;28;20023;-71
2021/10/22 02:47:19;;;;;;;7.75;3.20;;;7.80;99.90;;;7.29;100.00;101824.16;4100326;28;20035;-71
2021/10/22 02:49:20;;;;;;;5.65;2.40;;;7.70;99.90;;;7.23;100.00;101830.66;4116200;28;20567;-71
2021/10/22 02:51:21;;;;;;;9.90;2.30;;;7.70;99.90;;;7.23;100.00;101830.66;4132265;28;20141;-71
2021/10/22 02:53:23;;;;;;;5.65;2.30;;;7.60;99.90;;;7.18;100.00;101835.41;4100180;29;20043;-71
2021/10/22 02:55:23;;;;;;;6.45;2.28;;;7.60;99.90;;;7.14;100.00;101833.94;4133290;28;20037;-71
2021/10/22 02:57:24;;;;;;;9.45;3.03;;;7.60;99.90;;;7.19;100.00;101837.94;4115428;28;20027;-71
2021/10/22 02:59:25;;;;;;;9.18;2.65;;;7.50;99.90;;;7.15;100.00;101835.63;4119000;28;20038;-71
2021/10/22 03:01:26;;;;;;;7.22;2.00;;;7.50;99.90;;;7.10;100.00;101827.25;4120357;28;20022;-71
2021/10/22 03:03:27;;;;;;;7.95;3.25;;;7.50;99.90;;;7.05;100.00;101826.69;4119121;28;20050;-71
2021/10/22 03:05:30;;;;;;;5.13;2.22;;;7.50;99.90;;;7.14;100.00;101833.94;4120123;28;20045;-71
2021/10/22 03:07:31;;;;;;;6.95;2.72;;;7.50;99.90;;;7.19;100.00;101834.47;4118920;28;20038;-71
2021/10/22 03:09:32;;;;;;;4.82;2.28;;;7.50;99.90;;;7.12;100.00;101825.34;4103002;29;20031;-71
2021/10/22 03:11:33;;;;;;;5.38;3.03;;;7.50;99.90;;;7.11;100.00;101832.38;4134684;28;20022;-71
2021/10/22 03:13:34;;;;;;;4.03;2.30;;;7.40;99.90;;;7.06;100.00;101826.59;4114605;28;20545;-72
2021/10/22 03:15:35;;;;;;;6.25;2.15;;;7.40;99.90;;;7.04;100.00;101825.88;4102708;29;20038;-71
2021/10/22 03:17:36;;;;;;;5.93;3.08;;;7.40;99.90;;;7.05;100.00;101824.91;4120133;28;20027;-71
2021/10/22 03:19:37;;;;;;;8.13;2.85;;;7.40;99.90;;;6.98;100.00;101825.47;4118740;28;20081;-72
2021/10/22 03:21:42;;;;;;;5.93;1.90;;;7.40;99.90;;;6.91;100.00;101822.44;4102836;29;20462;-71
2021/10/22 03:23:43;;;;;;;7.82;2.10;;;7.30;99.90;;;6.83;100.00;101824.75;4118631;28;20037;-71
2021/10/22 03:25:43;;;;;;;6.40;2.28;;;7.30;99.90;;;6.91;100.00;101826.81;4119823;28;20031;-71
2021/10/22 03:27:44;;;;;;;7.47;3.65;;;7.30;99.90;;;7.00;100.00;101826.19;4119994;28;20031;-71
2021/10/22 03:29:47;;;;;;;4.97;2.10;;;7.30;99.90;;;6.80;100.00;101821.50;4118803;28;20535;-71
2021/10/22 03:31:48;;;;;;;5.25;2.17;;;7.30;99.90;;;6.80;100.00;101824.97;4118597;28;20035;-71
2021/10/22 03:33:49;;;;;;;7.07;2.60;;;7.20;99.90;;;6.74;100.00;101828.00;4118705;28;20375;-71
2021/10/22 03:35:50;;;;;;;6.88;2.15;;;7.20;99.90;;;6.86;100.00;101827.16;4102717;28;20042;-71
2021/10/22 03:37:51;;;;;;;7.22;2.30;;;7.30;99.90;;;6.96;100.00;101832.63;4119922;28;20153;-71
2021/10/22 03:39:52;;;;;;;7.53;2.75;;;7.20;99.90;;;6.98;100.00;101828.09;4102324;28;20028;-71
2021/10/22 03:41:53;;;;;;;12.90;3.35;;;7.20;99.90;;;6.91;100.00;101826.81;4118716;28;20042;-71
2021/10/22 03:43:54;;;;;;;7.05;2.83;;;7.20;99.90;;;6.84;100.00;101831.66;4119901;28;20046;-71
2021/10/22 03:45:55;;;;;;;5.60;2.60;;;7.20;99.90;;;6.76;100.00;101844.47;4118617;28;20031;-71
2021/10/22 03:47:57;;;;;;;7.03;2.35;;;7.10;99.90;;;6.78;100.00;101844.38;4102434;28;20039;-71
2021/10/22 03:49:57;;;;;;;5.95;2.75;;;7.20;99.90;;;6.63;100.00;101833.16;4118418;28;20034;-71
2021/10/22 03:51:58;;;;;;;10.73;3.05;;;7.10;99.90;;;6.72;100.00;101834.28;4118494;28;20114;-72
2021/10/22 03:54:00;;;;;;;4.90;2.47;;;7.10;99.90;;;6.63;100.00;101830.53;4119768;28;20027;-71
2021/10/22 03:56:01;;;;;;;6.78;2.70;;;7.10;99.90;;;6.65;100.00;101837.34;4119317;28;20102;-71
2021/10/22 03:58:02;;;;;;;4.22;2.78;;;7.00;99.90;;;6.57;100.00;101836.19;4102476;29;20046;-71
2021/10/22 04:00:06;;;;;;;6.80;3.22;;;7.00;99.90;;;6.59;100.00;101840.38;4118513;28;20035;-72
2021/10/22 04:02:07;;;;;;;;;;;7.00;99.90;;;6.51;100.00;101847.88;4118787;28;20430;-71
2021/10/22 04:04:08;;;;;;;6.13;2.80;;;7.00;99.90;;;6.54;100.00;101831.97;4102214;28;19917;-71
2021/10/22 04:06:09;;;;;;;6.53;2.67;;;7.00;99.90;;;6.63;100.00;101849.69;4133918;28;20030;-71
2021/10/22 04:08:11;;;;;;;11.15;3.20;;;7.00;99.90;;;6.60;100.00;101849.91;4117916;28;20069;-72
2021/10/22 04:10:12;;;;;;;8.25;3.92;;;7.00;99.90;;;6.64;100.00;101847.91;4102060;28;20106;-71
2021/10/22 04:12:12;;;;;;;6.30;3.33;;;7.00;99.90;;;6.56;100.00;101843.19;4131934;28;20038;-71
2021/10/22 04:14:13;;;;;;;10.63;3.25;;;7.00;99.90;;;6.52;100.00;101848.72;4119450;28;20045;-71
2021/10/22 04:16:14;;;;;;;6.95;3.05;;;6.90;99.90;;;6.57;100.00;101857.97;4118307;28;20014;-71
2021/10/22 04:18:15;;;;;;;8.93;3.60;;;7.00;99.90;;;6.56;100.00;101855.47;4101882;29;20049;-72
2021/10/22 04:20:16;;;;;;;6.85;3.03;;;7.00;99.90;;;6.55;100.00;101852.00;4099558;28;20612;-72
2021/10/22 04:22:17;;;;;;;9.75;4.03;;;7.00;99.90;;;6.62;100.00;101850.66;4118197;28;20624;-72
2021/10/22 04:24:18;;;;;;;8.90;3.83;;;7.00;99.90;;;6.65;100.00;101860.09;4118142;28;20034;-72
2021/10/22 04:26:19;;;;;;;10.23;3.25;;;7.00;99.90;;;6.69;100.00;101851.06;4117719;28;20039;-72
2021/10/22 04:28:21;;;;;;;5.85;2.90;;;7.00;99.90;;;6.68;100.00;101858.09;4117932;28;20118;-71
2021/10/22 04:30:22;;;;;;;10.18;3.38;;;7.10;99.90;;;6.64;100.00;101851.38;4118154;28;20041;-72
2021/10/22 04:32:23;;;;;;;8.25;4.22;;;7.00;99.90;;;6.60;100.00;101857.75;4117849;28;20031;-72
2021/10/22 04:34:26;;;;;;;9.73;3.70;;;7.00;99.90;;;6.71;100.00;101864.06;4101669;28;20047;-71
2021/10/22 04:36:27;;;;;;;5.35;3.58;;;7.00;99.90;;;6.68;100.00;101845.00;4118976;28;20164;-72
2021/10/22 04:40:55;;;;;;;6.72;3.33;;;7.00;99.90;;;6.65;100.00;101860.94;4119299;28;20467;-71
2021/10/22 04:43:07;;;;;;;8.27;3.42;;;7.00;99.90;;;6.63;100.00;101865.41;4117672;28;20031;-71
2021/10/22 04:45:09;;;;;;;7.10;3.30;;;7.00;99.90;;;6.64;100.00;101863.63;4117893;28;20514;-72
2021/10/22 04:47:10;;;;;;;8.65;3.08;;;7.00;99.90;;;6.59;100.00;101858.72;4117590;28;20035;-71
2021/10/22 04:49:11;;;;;;;7.25;3.88;;;7.00;99.90;;;6.55;100.00;101866.88;4117639;28;20034;-72
2021/10/22 04:51:13;;;;;;;5.70;3.03;;;6.90;99.90;;;6.64;100.00;101877.59;4117652;28;20035;-72
2021/10/22 04:53:15;;;;;;;6.97;3.17;;;6.90;99.90;;;6.54;100.00;101870.47;4101602;28;20031;-72
2021/10/22 04:55:16;;;;;;;5.97;2.90;;;6.90;99.90;;;6.60;100.00;101873.50;4126186;28;20030;-71
2021/10/22 04:57:17;;;;;;;8.82;3.20;;;6.90;99.90;;;6.51;100.00;101876.72;4118839;28;20023;-72
2021/10/22 04:59:20;;;;;;;8.07;3.53;;;6.90;99.90;;;6.44;100.00;101875.47;4117568;28;20031;-71
2021/10/22 05:01:22;;;;;;;6.57;3.35;;;6.90;99.90;;;6.39;100.00;101879.34;4117763;28;20051;-71
2021/10/22 05:03:23;;;;;;;7.45;3.88;;;6.80;99.90;;;6.40;100.00;101883.63;4117690;28;20034;-71
2021/10/22 05:05:24;;;;;;;5.90;3.10;;;6.80;99.90;;;6.42;100.00;101879.97;4117469;28;20027;-71
2021/10/22 05:07:25;;;;;;;7.18;3.05;;;6.80;99.90;;;6.38;100.00;101873.25;4118588;28;20402;-71
2021/10/22 05:09:26;;;;;;;5.22;3.78;;;6.80;99.90;;;6.42;100.00;101882.56;4117613;28;20065;-71
2021/10/22 05:11:26;;;;;;;9.45;3.13;;;6.80;99.90;;;6.44;100.00;101888.56;4117310;28;20038;-71
2021/10/22 05:13:27;;;;;;;10.55;3.47;;;6.80;99.90;;;6.58;100.00;101890.28;4117281;28;20073;-71
2021/10/22 05:15:28;;;;;;;7.28;3.05;;;6.80;99.90;;;6.48;100.00;101884.78;4117206;28;20047;-71
2021/10/22 05:17:32;;;;;;;6.35;2.88;;;6.80;99.90;;;6.37;100.00;101889.91;4118360;28;20490;-71
2021/10/22 05:19:33;;;;;;;12.07;4.35;;;6.80;99.90;;;6.34;100.00;101895.34;4118311;28;20043;-71
2021/10/22 05:21:34;;;;;;;10.15;3.35;;;6.80;99.90;;;6.29;100.00;101889.59;4118470;28;20027;-71
2021/10/22 05:23:35;;;;;;;7.63;3.28;;;6.80;99.90;;;6.30;100.00;101887.81;4101056;29;20062;-71
2021/10/22 05:25:36;;;;;;;5.53;3.72;;;6.70;99.90;;;6.24;100.00;101885.59;4121136;28;20026;-71
2021/10/22 05:27:38;;;;;;;5.00;3.00;;;6.70;99.90;;;6.19;100.00;101893.72;4118311;28;20023;-71
2021/10/22 05:29:39;;;;;;;8.10;3.10;;;6.70;99.90;;;6.23;100.00;101897.00;4117113;28;20574;-71
2021/10/22 05:31:40;;;;;;;5.85;3.20;;;6.70;99.90;;;6.22;100.00;101893.53;4116655;28;20063;-71
2021/10/22 05:33:41;;;;;;;7.55;3.15;;;6.70;99.90;;;6.10;100.00;101883.84;4117073;28;20077;-71
2021/10/22 05:35:42;;;;;;;3.85;2.40;;;6.60;99.90;;;6.22;100.00;101898.78;4116941;28;20031;-71
2021/10/22 05:37:43;;;;;;;8.80;2.63;;;6.60;99.90;;;6.31;100.00;101902.56;4100981;28;20023;-71
2021/10/22 05:39:44;;;;;;;6.78;2.80;;;6.60;99.90;;;6.16;100.00;101900.94;4113983;28;20039;-71
2021/10/22 05:41:46;;;;;;;6.68;3.30;;;6.60;99.90;;;6.37;100.00;101904.78;4116924;28;20023;-71
2021/10/22 05:43:49;;;;;;;4.47;2.60;;;6.60;99.90;;;6.36;100.00;101906.56;4116898;28;20118;-71
2021/10/22 05:45:50;;;;;;;9.20;3.20;;;6.60;99.90;;;6.35;100.00;101910.16;4116849;28;20026;-71
2021/10/22 05:47:51;;;;;;;5.60;2.80;;;6.70;99.90;;;6.33;100.00;101913.81;4117945;28;20031;-71
2021/10/22 05:49:52;;;;;;;8.27;2.92;;;6.70;99.90;;;6.30;100.00;101904.34;4117984;28;20395;-72
2021/10/22 05:51:53;;;;;;;10.30;3.00;;;6.70;99.90;;;6.29;100.00;101905.31;4118038;28;20077;-72
2021/10/22 05:53:55;;;;;;;9.45;2.80;;;6.70;99.90;;;6.33;100.00;101901.53;4116919;28;20109;-72
2021/10/22 05:55:56;;;;;;;10.57;3.67;;;6.70;99.90;;;6.39;100.00;101914.22;4116639;28;20033;-72
2021/10/22 05:57:57;;;;;;;7.43;3.47;;;6.70;99.90;;;6.31;100.00;101913.91;4116935;28;20058;-71
2021/10/22 05:59:58;;;;;;;8.48;3.35;;;6.70;99.90;;;6.27;100.00;101914.22;4116896;28;20407;-71
2021/10/22 06:01:59;;;;;;;6.78;3.35;;;6.60;99.90;;;6.20;100.00;101911.16;4100722;28;20101;-71
2021/10/22 06:04:00;;;;;;;4.82;3.67;;;6.60;99.90;;;6.35;100.00;101910.16;4113260;28;20149;-71
2021/10/22 06:06:01;;;;;;;7.13;3.08;;;6.60;99.90;;;6.36;100.00;101918.84;4087922;29;20034;-71
2021/10/22 06:08:03;;;;;;;9.05;3.55;;;6.60;99.90;;;6.32;100.00;101919.97;4116539;28;20062;-72
2021/10/22 06:10:05;;;;;;;7.18;3.45;;;6.70;99.90;;;6.36;100.00;101918.84;4116351;28;20457;-72
2021/10/22 06:12:06;;;;;;;5.20;3.30;;;6.70;99.90;;;6.30;100.00;101909.59;4117583;28;20035;-72
2021/10/22 06:14:07;;;;;;;9.07;4.20;;;6.70;99.90;;;6.30;100.00;101911.41;4116678;28;20023;-72
2021/10/22 06:16:11;;;;;;;5.43;3.55;;;6.70;99.90;;;6.32;100.00;101914.75;4116697;28;20027;-72
2021/10/22 06:18:15;;;;;;;7.88;3.42;;;6.70;99.90;;;6.21;100.00;101904.13;4100379;28;20028;-72
2021/10/22 06:20:26;;;;;;;6.10;3.72;;;6.70;99.90;;;6.12;100.00;101908.19;4116513;28;20027;-72
2021/10/22 06:24:46;;;;;;;6.78;3.85;;;6.70;99.90;;;6.22;100.00;101914.50;4116318;28;20042;-72
2021/10/22 06:26:47;;;;;;;8.85;3.65;;;6.60;99.90;;;6.16;100.00;101911.44;4116241;28;20035;-71
2021/10/22 06:28:51;;;;;;;6.85;3.70;;;6.60;99.90;;;6.17;100.00;101915.72;4116164;28;20035;-71
2021/10/22 06:30:52;;;;;;;7.65;3.22;;;6.60;99.90;;;6.05;100.00;101918.22;4115549;28;20034;-71
2021/10/22 06:32:53;;;;;;;8.32;3.72;;;6.60;99.90;;;6.04;100.00;101918.28;4117448;28;20637;-71
2021/10/22 06:34:54;;;;;;;8.05;3.83;;;6.60;99.90;;;6.04;100.00;101926.16;4100125;28;20126;-71
2021/10/22 06:36:56;;;;;;;5.72;3.55;;;6.50;99.90;;;6.03;100.00;101919.25;4116370;28;20402;-71
2021/10/22 06:38:58;;;;;;;5.78;3.10;;;6.60;99.90;;;6.07;100.00;101918.09;4100440;28;20038;-71
2021/10/22 06:40:59;;;;;;;8.85;3.50;;;6.50;99.90;;;6.19;100.00;101922.56;4118064;28;20030;-71
2021/10/22 06:43:00;;;;;;;6.90;3.10;;;6.60;99.90;;;6.21;100.00;101919.84;4117104;28;20030;-71
2021/10/22 06:45:02;;;;;;;8.48;3.58;;;6.60;99.90;;;6.13;100.00;101929.03;4101371;28;20114;-71
2021/10/22 06:47:03;;;;;;;6.25;3.40;;;6.60;99.90;;;6.21;100.00;101932.94;4133630;28;20034;-71
2021/10/22 06:49:04;;;;;;;8.25;4.15;;;6.60;99.90;;;6.20;100.00;101920.78;4116952;28;20481;-72
2021/10/22 06:51:07;;;;;;;10.15;5.97;;;6.60;99.90;;;6.24;100.00;101922.28;4118192;28;20031;-72
2021/10/22 06:53:08;;;;;;;7.63;4.68;;;6.60;99.90;;;6.21;100.00;101938.19;4117136;28;20038;-71
2021/10/22 06:55:10;;;;;;;11.93;4.53;;;6.60;99.90;;;6.26;100.00;101941.34;4117151;28;20027;-71
2021/10/22 06:57:11;;;;;;;11.30;4.57;;;6.60;99.90;;;6.19;100.00;101946.13;4116524;28;20035;-73
2021/10/22 06:59:12;;;;;;;5.35;3.90;;;6.60;99.90;;;6.05;100.00;101949.66;4148213;28;20035;-73
2021/10/22 07:01:13;;;;;;;5.80;3.78;;;6.60;99.90;;;6.11;100.00;101951.88;4160745;28;20037;-74
2021/10/22 07:03:19;;;;;;;10.57;3.67;;;6.60;99.90;;;6.13;100.00;101957.00;4157960;28;20034;-73
2021/10/22 07:07:28;;;;;;;4.72;2.95;;;6.60;99.90;;;6.27;100.00;101950.91;4155999;28;20055;-77
2021/10/22 07:09:29;;;;;;;11.90;3.88;;;6.60;99.90;;;6.20;100.00;101960.91;4157289;28;20032;-76
2021/10/22 07:11:30;;;;;;;6.32;3.28;;;6.60;99.90;;;6.16;100.00;101964.66;4157749;28;20050;-77
2021/10/22 07:13:31;;;;;;;8.00;3.90;;;6.70;99.90;;;6.27;100.00;101964.00;4157605;28;20038;-77
2021/10/22 07:15:33;;;;;;;7.97;3.55;;;6.70;99.90;;;6.37;100.00;101963.28;4140943;28;20116;-76
2021/10/22 07:17:34;;;;;;;6.40;3.35;;;6.70;99.90;;;6.25;100.00;101969.31;4159561;28;20098;-76
2021/10/22 07:19:35;;;;;;;6.55;3.75;;;6.70;99.90;;;6.16;100.00;101972.53;4125973;28;20052;-76
2021/10/22 07:21:43;;;;;;;5.65;3.63;;;6.70;99.90;;;6.21;100.00;101978.34;4132563;28;20034;-78
2021/10/22 07:23:48;;;;;;;5.55;3.20;;;6.60;99.90;;;6.36;100.00;101985.19;4114658;28;20031;-80
2021/10/22 07:25:49;;;;;;;7.43;3.25;;;6.70;99.90;;;6.49;100.00;101990.47;4100783;28;20078;-79
2021/10/22 07:27:51;;;;;;;3.40;2.58;;;6.80;99.90;;;6.52;98.61;101991.13;4110803;28;20027;-79
2021/10/22 07:29:52;;;;;;;5.07;3.20;;;6.80;99.90;;;6.45;98.38;101992.44;4100825;28;20586;-78
2021/10/22 07:31:53;;;;;;;7.95;3.65;;;6.80;99.90;;;6.42;99.01;101984.78;4116284;28;20039;-78
2021/10/22 07:33:55;;;;;;;5.57;2.80;;;6.80;99.90;;;6.33;99.77;101998.47;4100617;28;20533;-79
2021/10/22 07:35:57;;;;;;;5.97;3.08;;;6.80;99.90;;;6.18;100.00;101988.16;4116728;28;20034;-79
2021/10/22 07:37:58;;;;;;;4.35;2.97;;;6.80;99.90;;;6.13;100.00;101996.28;4116540;28;20061;-80
2021/10/22 07:40:00;;;;;;;5.43;3.30;;;6.80;99.90;;;6.22;100.00;102007.97;4116152;28;20030;-77
2021/10/22 07:42:02;;;;;;;4.45;2.70;;;6.80;99.90;;;6.07;100.00;101980.97;4119070;28;20101;-77
2021/10/22 07:44:03;;;;;;;4.50;3.10;;;6.70;99.90;;;6.28;100.00;102005.81;4120768;28;20051;-78
2021/10/22 07:46:05;;;;;;;3.55;2.67;;;6.80;99.90;;;6.30;100.00;102011.78;4119498;28;20052;-78
2021/10/22 07:48:07;;;;;;;3.80;2.50;;;6.80;99.90;;;6.31;100.00;102013.47;4120167;28;20031;-78
2021/10/22 07:50:09;;;;;;;4.82;2.95;;;6.80;99.90;;;6.29;100.00;102011.88;4120551;28;20035;-78
2021/10/22 07:52:14;;;;;;;6.05;3.20;;;6.90;99.90;;;6.33;100.00;102019.44;4119356;28;20035;-78
2021/10/22 07:54:15;;;;;;;5.15;3.15;;;6.90;99.90;;;6.48;100.00;102030.75;4119312;28;20403;-78
2021/10/22 07:56:16;;;;;;;5.93;3.17;;;7.00;99.90;;;6.50;100.00;102024.47;4120257;28;20034;-78
2021/10/22 07:58:18;;;;;;;7.97;2.88;;;7.00;99.90;;;6.52;100.00;102006.84;4120507;28;20080;-78
2021/10/22 08:00:19;;;;;;;4.68;2.80;;;7.00;99.90;;;6.57;100.00;102022.31;4118793;28;20494;-77
2021/10/22 08:02:21;;;;;;;5.50;3.13;;;7.10;99.90;;;6.64;100.00;102015.69;4119606;28;20114;-76
2021/10/22 08:04:22;;;;;;;7.57;3.13;;;7.20;99.90;;;6.79;100.00;102024.34;4119554;28;20152;-78
2021/10/22 08:06:23;;;;;;;9.23;3.08;;;7.20;99.90;;;6.81;100.00;102017.25;4118313;28;20027;-81
2021/10/22 08:08:24;;;;;;;11.65;6.57;;;7.30;99.90;;;6.87;100.00;102016.84;4119333;28;20118;-79
2021/10/22 08:10:25;;;;;;;5.45;3.00;;;7.40;99.90;;;7.09;100.00;102044.16;4119034;28;20501;-79
2021/10/22 08:12:28;;;;;;;9.18;3.42;;;7.50;99.90;;;7.10;100.00;102024.03;4118734;28;20442;-79
2021/10/22 08:14:29;;;;;;;10.75;4.35;;;7.50;99.90;;;7.27;100.00;102036.00;4119193;28;20065;-79
2021/10/22 08:16:30;;;;;;;8.70;3.35;;;7.70;99.90;;;7.32;100.00;102036.56;4119274;28;20034;-79
2021/10/22 08:18:32;;;;;;;6.18;3.30;;;7.80;99.90;;;7.30;100.00;102023.50;4119041;28;20104;-79
2021/10/22 08:20:35;;;;;;;6.90;3.03;;;7.90;99.90;;;7.46;100.00;102039.91;4119049;28;20026;-79
2021/10/22 08:22:37;;;;;;;10.25;3.50;;;7.90;99.90;;;7.55;100.00;102041.06;4119151;28;20041;-79
2021/10/22 08:24:38;;;;;;;5.03;2.90;;;8.10;99.90;;;7.71;100.00;102052.19;4118839;28;20114;-79
2021/10/22 08:26:39;;;;;;;4.55;2.72;;;8.10;99.90;;;7.64;100.00;102041.28;4119090;28;20038;-79
2021/10/22 08:28:40;;;;;;;4.97;2.40;;;8.20;99.90;;;7.86;100.00;102059.00;4119085;28;20048;-79
2021/10/22 08:30:41;;;;;;;5.88;2.78;;;8.30;99.90;;;7.72;100.00;102032.88;4119037;28;20090;-79
2021/10/22 08:32:47;;;;;;;5.32;2.85;;;8.40;99.90;;;7.96;100.00;102061.84;4117877;28;20526;-79
2021/10/22 08:34:48;;;;;;;8.43;3.65;;;8.50;99.90;;;7.92;100.00;102053.31;4117654;28;20030;-79
2021/10/22 08:36:49;;;;;;;5.60;2.80;;;8.50;99.90;;;7.96;100.00;102048.72;4119076;28;20395;-79